Time;durP1;ratioP1;P1;durP2;ratioP2;P2;SDS_P1;SDS_P2;PMS_P1;PMS_P2;Temp;Humidity;BMP_temperature;BMP_pressure;BME280_temperature;BME280_humidity;BME280_pressure;Samples;Min_cycle;Max_cycle;Signal;HPM_P1;HPM_P2
2023/01/26 00:01:08;;;;;;;6.63;4.97;;;;;;;1.18;98.46;95058.00;6268724;22;20507;-77
2023/01/26 00:03:35;;;;;;;6.40;4.70;;;;;;;1.12;98.24;95060.19;6269868;22;20161;-76
2023/01/26 00:06:04;;;;;;;7.27;5.17;;;;;;;1.29;98.23;95076.47;6271487;22;20167;-77
2023/01/26 00:08:35;;;;;;;7.93;5.00;;;;;;;1.29;98.19;95066.22;6268735;22;20282;-76
2023/01/26 00:11:03;;;;;;;8.00;5.27;;;;;;;1.41;97.59;95070.13;6268561;22;20163;-77
2023/01/26 00:13:30;;;;;;;8.50;4.90;;;;;;;1.29;98.07;95071.34;6271919;22;20173;-77
2023/01/26 00:15:57;;;;;;;8.67;5.30;;;;;;;1.33;97.44;95074.41;6269121;22;20173;-77
2023/01/26 00:18:23;;;;;;;7.20;5.07;;;;;;;1.27;97.89;95080.91;6268840;22;20196;-76
2023/01/26 00:20:55;;;;;;;8.00;5.03;;;;;;;1.20;97.74;95072.25;6270916;22;20172;-76
2023/01/26 00:23:22;;;;;;;7.93;5.50;;;;;;;1.33;97.44;95082.84;6269707;22;20160;-76
2023/01/26 00:25:50;;;;;;;9.73;6.13;;;;;;;1.40;98.04;95086.44;6269400;22;20171;-77
2023/01/26 00:28:17;;;;;;;10.23;5.57;;;;;;;1.46;97.16;95067.91;6271436;22;20195;-77
2023/01/26 00:30:44;;;;;;;9.90;5.60;;;;;;;1.43;96.79;95069.97;6269596;22;20620;-78
2023/01/26 00:33:10;;;;;;;12.13;6.00;;;;;;;1.24;96.82;95042.03;6269412;22;20176;-77
2023/01/26 00:35:37;;;;;;;9.00;5.50;;;;;;;1.28;97.59;95048.44;6270719;22;20195;-76
2023/01/26 00:38:04;;;;;;;8.47;5.30;;;;;;;1.26;97.76;95042.66;6268769;22;20161;-77
2023/01/26 00:40:31;;;;;;;7.90;5.00;;;;;;;1.17;97.57;95039.25;6268733;22;20172;-77
2023/01/26 00:42:59;;;;;;;8.93;5.43;;;;;;;1.14;97.38;95042.13;6271823;22;20168;-77
2023/01/26 00:45:26;;;;;;;8.67;5.43;;;;;;;1.26;97.32;95046.03;6269800;22;20168;-77
2023/01/26 00:47:53;;;;;;;8.33;5.30;;;;;;;1.27;97.21;95039.94;6268852;22;20168;-77
2023/01/26 00:50:20;;;;;;;10.37;5.67;;;;;;;1.20;96.75;95033.03;6271612;22;20172;-77
2023/01/26 00:52:47;;;;;;;8.07;5.67;;;;;;;1.17;97.32;95036.72;6269710;22;20188;-77
2023/01/26 00:55:13;;;;;;;8.47;5.87;;;;;;;1.24;97.30;95035.13;6267624;22;20176;-77
2023/01/26 00:57:40;;;;;;;7.90;5.20;;;;;;;1.28;97.06;95038.19;6270372;22;20631;-77
2023/01/26 01:00:15;;;;;;;9.53;5.83;;;;;;;1.25;97.19;95030.81;6268410;22;20636;-76
2023/01/26 01:02:42;;;;;;;9.70;5.10;;;;;;;1.30;97.00;95026.06;6269239;22;20160;-78
2023/01/26 01:05:10;;;;;;;8.73;5.47;;;;;;;1.23;96.44;95020.75;6271536;22;20183;-78
2023/01/26 01:07:36;;;;;;;8.70;5.67;;;;;;;1.25;96.52;95005.22;6269199;22;20977;-79
2023/01/26 01:10:04;;;;;;;10.13;5.97;;;;;;;1.30;96.24;95026.84;6269914;22;20199;-79
2023/01/26 01:12:30;;;;;;;8.47;5.50;;;;;;;1.14;96.35;95022.47;6271371;22;20567;-80
2023/01/26 01:14:57;;;;;;;9.93;6.40;;;;;;;0.99;97.25;95021.41;6269895;22;20174;-80
2023/01/26 01:17:25;;;;;;;9.73;6.10;;;;;;;0.85;97.73;95001.50;6269373;22;20257;-80
2023/01/26 01:19:52;;;;;;;9.93;6.10;;;;;;;1.06;98.01;95013.94;6271736;22;20671;-79
2023/01/26 01:22:19;;;;;;;10.40;6.27;;;;;;;1.19;97.95;95010.94;6269339;22;20241;-80
2023/01/26 01:24:46;;;;;;;12.20;6.97;;;;;;;1.17;97.52;95011.13;6269915;22;20187;-79
2023/01/26 01:27:13;;;;;;;9.67;6.40;;;;;;;1.25;96.92;95007.78;6270776;22;20251;-78
2023/01/26 01:29:40;;;;;;;8.77;6.20;;;;;;;1.15;96.78;95005.34;6268143;22;20206;-78
2023/01/26 01:32:06;;;;;;;10.07;6.43;;;;;;;1.14;96.74;95006.31;6268711;22;20173;-79
2023/01/26 01:34:34;;;;;;;10.13;6.07;;;;;;;1.10;97.50;95007.53;6271169;22;20172;-79
2023/01/26 01:37:01;;;;;;;12.07;6.33;;;;;;;0.97;96.79;95004.59;6267861;22;20173;-79
2023/01/26 01:39:28;;;;;;;8.30;5.70;;;;;;;1.01;97.50;95008.47;6267792;22;20168;-79
2023/01/26 01:41:55;;;;;;;8.10;5.70;;;;;;;0.96;97.08;95008.09;6270267;22;20225;-79
2023/01/26 01:44:23;;;;;;;9.57;5.77;;;;;;;0.99;96.49;94992.47;6267802;22;20191;-79
2023/01/26 01:46:55;;;;;;;9.43;5.40;;;;;;;1.02;96.39;95008.31;6267719;22;20229;-79
2023/01/26 01:49:28;;;;;;;8.80;5.53;;;;;;;1.02;96.23;95007.50;6269938;22;20552;-79
2023/01/26 01:52:02;;;;;;;8.63;5.50;;;;;;;0.97;96.32;95005.41;6269177;22;20156;-79
2023/01/26 01:54:33;;;;;;;9.27;5.67;;;;;;;1.01;95.75;94995.69;6268763;22;20153;-79
2023/01/26 01:57:05;;;;;;;8.27;5.40;;;;;;;1.03;95.73;94988.66;6269218;22;20260;-78
2023/01/26 01:59:32;;;;;;;8.33;5.13;;;;;;;1.07;95.86;95000.97;6268507;22;20164;-78
2023/01/26 02:01:59;;;;;;;10.87;5.70;;;;;;;1.04;96.05;94997.91;6267573;22;20678;-78
2023/01/26 02:04:27;;;;;;;9.30;5.67;;;;;;;1.02;95.92;95000.63;6267850;22;20996;-78
2023/01/26 02:06:58;;;;;;;8.53;5.53;;;;;;;0.93;96.27;95004.09;6268734;22;20247;-78
2023/01/26 02:12:18;;;;;;;7.93;5.20;;;;;;;0.84;95.13;94976.06;6267479;22;20161;-78
2023/01/26 02:14:45;;;;;;;5.93;4.33;;;;;;;0.89;95.98;94977.22;6270944;22;20242;-78
2023/01/26 02:17:12;;;;;;;10.77;5.10;;;;;;;0.94;95.12;94972.47;6268448;22;20595;-78
2023/01/26 02:19:49;;;;;;;7.57;5.13;;;;;;;0.89;95.53;94967.00;6267971;22;20172;-78
2023/01/26 02:22:28;;;;;;;8.87;5.53;;;;;;;0.91;95.95;94964.28;6269605;22;20292;-78
2023/01/26 02:25:04;;;;;;;7.33;4.57;;;;;;;0.84;96.03;94953.84;6269662;22;20170;-78
2023/01/26 02:27:32;;;;;;;8.23;5.20;;;;;;;0.85;95.62;94950.34;6269868;22;20153;-78
2023/01/26 02:30:01;;;;;;;10.50;5.37;;;;;;;0.76;96.09;94951.25;6271161;22;20278;-78
2023/01/26 02:32:28;;;;;;;7.17;4.80;;;;;;;0.70;95.80;94951.84;6270609;22;20186;-77
2023/01/26 02:34:56;;;;;;;11.17;5.40;;;;;;;0.71;96.88;94944.97;6270145;22;20169;-78
2023/01/26 02:37:23;;;;;;;7.23;4.93;;;;;;;0.82;96.46;94945.53;6271112;22;20681;-77
2023/01/26 02:39:55;;;;;;;9.07;4.97;;;;;;;0.71;95.99;94944.97;6270210;22;20172;-77
2023/01/26 02:42:40;;;;;;;9.80;4.67;;;;;;;0.75;96.48;94949.63;6268470;22;20187;-77
2023/01/26 02:45:10;;;;;;;7.23;4.60;;;;;;;0.71;95.88;94942.41;6269956;22;20167;-78
2023/01/26 02:47:39;;;;;;;6.53;4.07;;;;;;;0.79;95.58;94929.69;6271715;22;20232;-78
2023/01/26 02:50:05;;;;;;;7.37;4.90;;;;;;;0.76;95.70;94912.06;6269697;22;20298;-78
2023/01/26 02:52:32;;;;;;;8.03;5.07;;;;;;;0.70;95.89;94923.72;6269909;22;20171;-78
2023/01/26 02:57:44;;;;;;;7.27;4.77;;;;;;;0.64;96.89;94920.94;6269723;22;20180;-76
2023/01/26 03:00:15;;;;;;;9.33;4.90;;;;;;;0.59;95.97;94913.75;6268343;22;20232;-76
2023/01/26 03:02:43;;;;;;;8.40;5.50;;;;;;;0.67;96.56;94908.66;6272079;22;20163;-76
2023/01/26 03:05:10;;;;;;;7.37;5.10;;;;;;;0.74;96.58;94907.13;6269488;22;20169;-78
2023/01/26 03:07:37;;;;;;;9.97;5.50;;;;;;;0.77;96.32;94899.16;6270174;22;20180;-77
2023/01/26 03:10:05;;;;;;;9.57;5.97;;;;;;;0.55;97.13;94899.66;6271556;22;20199;-78
2023/01/26 03:12:31;;;;;;;10.40;5.77;;;;;;;0.44;97.50;94880.25;6269384;22;20228;-77
2023/01/26 03:17:49;;;;;;;9.97;5.87;;;;;;;0.51;97.93;94886.38;6231370;22;20211;-77
2023/01/26 03:28:29;;;;;;;8.83;5.83;;;;;;;0.60;97.55;94876.19;6271630;22;20163;-78
2023/01/26 03:30:57;;;;;;;8.23;5.77;;;;;;;0.63;97.39;94865.69;6267283;22;20517;-77
2023/01/26 03:33:26;;;;;;;8.87;5.40;;;;;;;0.45;98.23;94870.84;6267258;22;20175;-77
2023/01/26 03:35:54;;;;;;;9.93;6.40;;;;;;;0.53;98.50;94879.38;6269848;22;20169;-77
2023/01/26 03:38:21;;;;;;;10.13;6.00;;;;;;;0.26;98.13;94856.50;6267273;22;20175;-78
2023/01/26 03:57:13;;;;;;;9.33;6.00;;;;;;;0.35;99.34;94858.16;6271400;22;20218;-78
2023/01/26 03:59:40;;;;;;;10.80;7.27;;;;;;;0.39;99.37;94851.81;6269255;22;20570;-78
2023/01/26 04:10:24;;;;;;;9.53;6.10;;;;;;;0.57;98.25;94841.53;6268179;22;20176;-77
2023/01/26 04:23:49;;;;;;;8.50;5.90;;;;;;;0.48;98.73;94809.19;6269971;22;20172;-77
2023/01/26 04:26:16;;;;;;;9.70;6.07;;;;;;;0.47;98.60;94805.84;6269523;22;20175;-77
2023/01/26 04:28:43;;;;;;;9.80;5.63;;;;;;;0.36;98.89;94800.19;6268112;22;20170;-77
2023/01/26 04:31:10;;;;;;;7.10;5.37;;;;;;;0.38;99.02;94793.16;6269727;22;20592;-77
2023/01/26 04:33:36;;;;;;;8.93;5.57;;;;;;;0.44;98.56;94805.34;6270050;22;20176;-77
2023/01/26 04:36:06;;;;;;;7.87;5.60;;;;;;;0.42;99.23;94797.03;6267954;22;20651;-77
2023/01/26 04:38:39;;;;;;;8.53;5.67;;;;;;;0.36;98.98;94802.75;6269493;22;20167;-76
2023/01/26 04:41:06;;;;;;;8.73;5.93;;;;;;;0.32;99.19;94792.03;6271446;22;20180;-78
2023/01/26 04:43:33;;;;;;;8.60;5.97;;;;;;;0.41;99.34;94805.63;6269003;22;20815;-76
2023/01/26 04:46:03;;;;;;;8.87;5.80;;;;;;;0.40;99.52;94809.16;6268537;22;20609;-78
2023/01/26 04:48:31;;;;;;;9.17;6.03;;;;;;;0.45;98.68;94815.41;6271102;22;20180;-74
2023/01/26 04:51:02;;;;;;;9.10;5.87;;;;;;;0.38;99.14;94806.75;6268946;22;20191;-76
2023/01/26 04:53:32;;;;;;;8.23;5.73;;;;;;;0.37;99.21;94812.03;6268941;22;20633;-71
2023/01/26 04:56:11;;;;;;;8.07;5.57;;;;;;;0.37;98.98;94815.38;6272165;22;20174;-71
2023/01/26 04:58:42;;;;;;;8.10;5.73;;;;;;;0.39;98.18;94810.13;6268997;22;20192;-71
2023/01/26 05:01:10;;;;;;;8.00;5.20;;;;;;;0.28;98.45;94798.41;6268911;22;20166;-72
2023/01/26 05:03:41;;;;;;;8.00;5.30;;;;;;;0.27;99.06;94813.88;6270230;22;20169;-71
2023/01/26 05:06:15;;;;;;;9.23;5.40;;;;;;;0.33;98.69;94803.06;6268587;22;20156;-71
2023/01/26 05:08:44;;;;;;;9.67;5.47;;;;;;;0.37;98.29;94805.16;6268439;22;20155;-71
2023/01/26 05:11:15;;;;;;;8.77;5.50;;;;;;;0.35;98.23;94803.69;6270772;22;20247;-71
2023/01/26 05:13:48;;;;;;;9.73;5.73;;;;;;;0.33;98.98;94811.53;6269815;22;20158;-71
2023/01/26 05:16:16;;;;;;;6.80;5.30;;;;;;;0.29;99.36;94809.44;6268257;22;20317;-78
2023/01/26 05:18:44;;;;;;;8.87;5.40;;;;;;;0.21;98.71;94804.25;6271113;22;20610;-72
2023/01/26 05:21:14;;;;;;;10.27;5.63;;;;;;;0.37;99.39;94806.91;6270175;22;20183;-73
2023/01/26 05:23:45;;;;;;;9.27;6.07;;;;;;;0.17;98.91;94769.75;6269104;22;20526;-72
2023/01/26 05:26:13;;;;;;;9.37;5.90;;;;;;;0.46;99.25;94803.44;6269546;22;20166;-72
2023/01/26 05:28:41;;;;;;;8.43;5.63;;;;;;;0.48;97.98;94807.44;6270816;22;20173;-73
2023/01/26 05:31:09;;;;;;;9.63;5.50;;;;;;;0.60;98.08;94804.63;6268653;22;20200;-73
2023/01/26 05:33:37;;;;;;;11.60;6.17;;;;;;;0.53;98.10;94800.13;6268977;22;20481;-73
2023/01/26 05:36:06;;;;;;;11.30;5.93;;;;;;;0.47;97.81;94787.94;6270539;22;20248;-73
2023/01/26 05:38:37;;;;;;;13.50;7.83;;;;;;;0.66;97.66;94796.34;6268352;22;20166;-73
2023/01/26 05:41:07;;;;;;;8.83;6.20;;;;;;;0.73;97.45;94793.00;6269917;22;20734;-74
2023/01/26 05:43:34;;;;;;;9.90;6.40;;;;;;;0.66;97.29;94792.03;6275149;22;20163;-74
2023/01/26 05:46:01;;;;;;;10.37;6.87;;;;;;;0.72;97.49;94795.72;6269244;22;20166;-74
2023/01/26 05:48:28;;;;;;;10.47;6.37;;;;;;;0.74;97.01;94797.16;6267946;22;20172;-72
2023/01/26 05:50:56;;;;;;;11.47;6.73;;;;;;;0.79;96.93;94799.25;6266713;22;20198;-74
2023/01/26 05:53:23;;;;;;;12.47;6.70;;;;;;;0.86;96.44;94800.25;6267475;22;20204;-73
2023/01/26 05:55:50;;;;;;;9.77;6.63;;;;;;;0.84;95.93;94805.50;6267222;22;20223;-73
2023/01/26 05:58:18;;;;;;;11.60;7.37;;;;;;;0.89;96.41;94807.59;6270452;22;20179;-74
2023/01/26 06:00:47;;;;;;;10.93;7.00;;;;;;;0.92;96.32;94799.63;6270356;22;20256;-73
2023/01/26 06:03:14;;;;;;;11.63;7.30;;;;;;;0.90;96.19;94804.06;6269404;22;20710;-73
2023/01/26 06:05:41;;;;;;;13.03;7.60;;;;;;;0.82;96.17;94802.31;6272215;22;20171;-73
2023/01/26 06:08:08;;;;;;;13.57;6.67;;;;;;;0.65;95.51;94764.84;6255676;22;20176;-72
2023/01/26 06:10:35;;;;;;;12.13;7.27;;;;;;;0.85;96.07;94796.88;6265902;22;20202;-72
2023/01/26 06:13:01;;;;;;;12.63;7.20;;;;;;;0.80;96.03;94798.31;6271368;22;20169;-72
2023/01/26 06:15:29;;;;;;;16.17;9.23;;;;;;;0.78;96.25;94788.22;6266932;22;20170;-72
2023/01/26 06:17:56;;;;;;;17.10;9.37;;;;;;;0.71;96.59;94789.00;6269604;22;20261;-73
2023/01/26 06:20:23;;;;;;;12.23;7.70;;;;;;;0.81;96.37;94785.34;6270244;22;20165;-72
2023/01/26 06:22:50;;;;;;;13.00;7.90;;;;;;;0.72;96.52;94796.53;6267833;22;20172;-73
2023/01/26 06:25:16;;;;;;;16.07;8.10;;;;;;;0.85;96.48;94778.97;6269290;22;20179;-72
2023/01/26 06:27:43;;;;;;;13.33;7.40;;;;;;;0.96;96.16;94785.56;6271058;22;20176;-72
2023/01/26 06:30:11;;;;;;;12.80;8.37;;;;;;;1.02;95.87;94782.38;6270039;22;20195;-72
2023/01/26 06:32:39;;;;;;;11.77;7.97;;;;;;;1.14;95.17;94779.38;6269760;22;20179;-72
2023/01/26 06:35:07;;;;;;;15.43;8.47;;;;;;;0.92;95.36;94776.59;6271934;22;20870;-73
2023/01/26 06:37:34;;;;;;;13.80;8.30;;;;;;;0.95;95.76;94771.19;6269202;22;20174;-70
2023/01/26 06:40:01;;;;;;;14.43;7.60;;;;;;;0.97;96.07;94771.81;6269332;22;20215;-70
2023/01/26 06:42:28;;;;;;;14.17;7.60;;;;;;;0.95;95.52;94768.63;6272103;22;20549;-70
2023/01/26 06:44:57;;;;;;;14.33;7.87;;;;;;;1.04;95.28;94770.22;6270431;22;20225;-70
2023/01/26 06:47:24;;;;;;;15.87;8.60;;;;;;;0.96;95.67;94765.91;6269685;22;20768;-70
2023/01/26 06:49:53;;;;;;;15.50;8.33;;;;;;;0.83;95.99;94772.41;6271790;22;20655;-70
2023/01/26 06:52:26;;;;;;;14.33;8.03;;;;;;;0.78;96.35;94782.31;6269737;22;20233;-69
2023/01/26 06:54:53;;;;;;;13.47;8.20;;;;;;;0.86;96.19;94767.81;6270226;22;20239;-70
2023/01/26 06:57:20;;;;;;;14.60;8.83;;;;;;;0.88;96.85;94762.50;6272183;22;20167;-70
2023/01/26 06:59:47;;;;;;;15.10;8.73;;;;;;;0.97;96.32;94764.13;6269868;22;20206;-70
2023/01/26 07:02:17;;;;;;;16.17;9.10;;;;;;;0.96;95.95;94767.66;6270392;22;20168;-70
2023/01/26 07:04:44;;;;;;;15.20;8.27;;;;;;;0.91;96.28;94765.56;6272255;22;20165;-69
2023/01/26 07:07:12;;;;;;;16.57;9.17;;;;;;;0.87;96.47;94754.03;6269762;22;20175;-70
2023/01/26 07:09:40;;;;;;;14.53;8.20;;;;;;;0.87;96.01;94750.66;6269930;22;20519;-69
2023/01/26 07:12:07;;;;;;;15.50;8.57;;;;;;;0.96;96.06;94739.50;6271201;22;20175;-69
2023/01/26 07:14:33;;;;;;;13.83;8.07;;;;;;;1.04;95.64;94747.19;6269818;22;20174;-69
2023/01/26 07:17:01;;;;;;;15.80;7.77;;;;;;;1.12;95.33;94752.34;6269442;22;20229;-68
2023/01/26 07:19:30;;;;;;;12.77;7.97;;;;;;;1.05;94.99;94759.84;6271060;22;20180;-69
2023/01/26 07:21:56;;;;;;;14.13;8.07;;;;;;;1.04;96.32;94752.31;6270078;22;20162;-70
2023/01/26 07:24:25;;;;;;;15.63;8.63;;;;;;;1.03;95.76;94751.53;6269234;22;20240;-70
2023/01/26 07:26:51;;;;;;;20.73;8.73;;;;;;;1.13;96.13;94747.06;6271759;22;20225;-70
2023/01/26 07:29:18;;;;;;;13.93;8.73;;;;;;;1.14;95.69;94746.09;6270367;22;20171;-70
2023/01/26 07:31:45;;;;;;;14.77;8.57;;;;;;;1.25;95.28;94744.97;6269443;22;20201;-70
2023/01/26 07:34:12;;;;;;;13.67;8.70;;;;;;;1.34;95.05;94743.22;6271970;22;20176;-70
2023/01/26 07:36:39;;;;;;;14.53;8.03;;;;;;;1.30;95.48;94744.53;6269484;22;20186;-70
2023/01/26 07:39:06;;;;;;;18.00;9.00;;;;;;;1.36;94.75;94742.09;6269527;22;20180;-70
2023/01/26 07:41:35;;;;;;;15.50;8.80;;;;;;;1.40;94.67;94745.97;6271327;22;20488;-71
2023/01/26 07:44:03;;;;;;;15.93;8.80;;;;;;;1.24;94.85;94743.38;6269665;22;20555;-72
2023/01/26 07:46:30;;;;;;;12.73;8.03;;;;;;;1.22;95.38;94740.19;6267673;22;20175;-72
2023/01/26 07:48:57;;;;;;;13.90;8.57;;;;;;;1.27;94.76;94739.72;6269733;22;20659;-71
2023/01/26 07:51:23;;;;;;;18.13;7.33;;;;;;;1.32;94.50;94745.16;6269645;22;20220;-79
2023/01/26 07:53:50;;;;;;;15.77;7.77;;;;;;;1.32;97.40;94738.28;6270695;22;20190;-78
2023/01/26 07:56:19;;;;;;;14.43;8.70;;;;;;;1.42;97.57;94746.59;6272014;22;20168;-78
2023/01/26 07:58:50;;;;;;;15.50;8.30;;;;;;;1.50;96.77;94735.56;6271839;22;20179;-78
2023/01/26 08:01:17;;;;;;;12.30;7.40;;;;;;;1.63;97.37;94744.34;6270786;22;20528;-78
2023/01/26 08:03:45;;;;;;;13.50;7.90;;;;;;;1.62;96.05;94737.63;6271562;22;20172;-78
2023/01/26 08:06:13;;;;;;;13.47;7.57;;;;;;;1.70;96.08;94737.59;6271393;22;20559;-77
2023/01/26 08:08:40;;;;;;;12.63;7.53;;;;;;;1.63;95.22;94717.94;6269210;22;20555;-77
2023/01/26 08:11:08;;;;;;;12.90;7.10;;;;;;;1.54;95.44;94685.63;6270595;22;20254;-77
2023/01/26 08:13:35;;;;;;;11.70;7.70;;;;;;;1.81;94.96;94722.88;6271326;22;20171;-79
2023/01/26 08:16:05;;;;;;;14.53;8.57;;;;;;;1.82;95.59;94707.34;6270491;22;20182;-79
2023/01/26 08:18:32;;;;;;;14.63;8.30;;;;;;;1.82;95.13;94707.34;6270048;22;20607;-78
2023/01/26 08:20:59;;;;;;;13.30;8.13;;;;;;;1.97;95.50;94723.66;6262332;22;20168;-86
2023/01/26 08:23:26;;;;;;;12.00;6.80;;;;;;;2.03;93.98;94717.06;6263995;22;20177;-85
2023/01/26 08:25:53;;;;;;;12.63;7.13;;;;;;;1.97;95.04;94721.09;6272541;22;20173;-84
2023/01/26 08:28:20;;;;;;;13.03;7.43;;;;;;;2.02;94.60;94715.47;6274057;22;20188;-85
2023/01/26 08:30:47;;;;;;;10.50;6.80;;;;;;;1.89;93.67;94715.97;6272675;22;20202;-83
2023/01/26 08:33:15;;;;;;;11.97;6.83;;;;;;;2.03;92.59;94717.06;6274239;22;20180;-85
2023/01/26 08:35:42;;;;;;;13.90;7.63;;;;;;;2.07;93.83;94710.66;6276898;22;20176;-86
2023/01/26 08:38:09;;;;;;;11.87;7.30;;;;;;;2.16;93.41;94705.34;6271985;22;20176;-84
2023/01/26 08:40:36;;;;;;;11.73;7.00;;;;;;;2.15;93.42;94711.44;6271678;22;20819;-83
2023/01/26 08:43:03;;;;;;;12.80;6.70;;;;;;;2.26;92.02;94705.13;6273310;22;20253;-84
2023/01/26 08:45:31;;;;;;;10.80;6.50;;;;;;;2.29;91.69;94699.69;6272535;22;20169;-84
2023/01/26 08:47:57;;;;;;;11.10;7.73;;;;;;;2.32;93.44;94696.78;6272249;22;20177;-81
2023/01/26 08:50:26;;;;;;;10.73;6.70;;;;;;;2.36;92.42;94710.88;6272669;22;20536;-85
2023/01/26 08:52:56;;;;;;;8.20;5.73;;;;;;;2.26;90.09;94698.25;6272544;22;20172;-84
2023/01/26 08:55:23;;;;;;;8.50;5.63;;;;;;;2.15;89.55;94724.25;6269055;22;20154;-78
2023/01/26 08:57:53;;;;;;;9.50;5.47;;;;;;;2.11;89.51;94717.03;6271430;22;20180;-77
2023/01/26 09:00:25;;;;;;;9.43;5.47;;;;;;;2.08;89.73;94709.66;6269306;22;20591;-78
2023/01/26 09:02:58;;;;;;;7.67;5.00;;;;;;;2.03;90.44;94707.63;6269382;22;20164;-79
2023/01/26 09:05:27;;;;;;;6.77;5.10;;;;;;;2.02;89.53;94703.44;6271295;22;20154;-76
2023/01/26 09:07:53;;;;;;;9.63;5.60;;;;;;;2.05;89.48;94699.78;6268198;22;20179;-77
2023/01/26 09:10:20;;;;;;;8.70;5.73;;;;;;;2.11;89.97;94711.91;6268440;22;20172;-77
2023/01/26 09:12:47;;;;;;;9.07;5.30;;;;;;;2.18;89.56;94705.16;6270543;22;20443;-76
2023/01/26 09:15:14;;;;;;;8.60;5.10;;;;;;;2.14;88.72;94696.19;6269168;22;20682;-77
2023/01/26 09:17:41;;;;;;;8.47;4.90;;;;;;;2.27;88.37;94706.75;6268704;22;20235;-77
2023/01/26 09:20:09;;;;;;;7.50;4.73;;;;;;;2.20;88.06;94701.47;6271320;22;20254;-80
2023/01/26 09:22:37;;;;;;;6.10;4.53;;;;;;;2.11;88.16;94702.47;6269439;22;20225;-75
2023/01/26 09:25:05;;;;;;;7.20;4.67;;;;;;;2.08;88.73;94689.97;6269220;22;20659;-76
2023/01/26 09:27:32;;;;;;;6.37;5.00;;;;;;;2.05;88.92;94689.53;6269848;22;20165;-75
2023/01/26 09:29:58;;;;;;;7.20;4.97;;;;;;;2.15;89.12;94688.38;6268764;22;20227;-75
2023/01/26 09:32:25;;;;;;;8.67;4.90;;;;;;;2.09;88.68;94685.66;6270191;22;20192;-76
2023/01/26 09:34:52;;;;;;;5.73;4.20;;;;;;;2.03;88.98;94673.50;6273917;22;20229;-76
2023/01/26 09:37:21;;;;;;;5.33;4.30;;;;;;;2.04;88.98;94664.84;6272870;22;20175;-75
2023/01/26 09:39:49;;;;;;;6.43;4.00;;;;;;;1.97;89.52;94653.66;6272379;22;20168;-76
2023/01/26 09:42:35;;;;;;;5.70;4.20;;;;;;;1.99;89.73;94669.69;6274196;22;20195;-77
2023/01/26 09:45:15;;;;;;;6.23;4.47;;;;;;;2.02;89.33;94667.56;6272504;22;20250;-75
2023/01/26 09:47:59;;;;;;;5.23;4.20;;;;;;;2.03;88.95;94682.00;6271375;22;20168;-76
2023/01/26 09:50:30;;;;;;;5.53;4.07;;;;;;;2.04;89.61;94677.66;6270543;22;20157;-75
2023/01/26 09:53:01;;;;;;;4.67;3.90;;;;;;;2.15;89.12;94665.28;6272861;22;20153;-75
2023/01/26 09:55:30;;;;;;;9.23;4.90;;;;;;;2.16;89.55;94660.97;6271415;22;20153;-76
2023/01/26 09:58:03;;;;;;;6.10;4.10;;;;;;;2.22;89.47;94655.97;6271330;22;20199;-76
2023/01/26 10:00:35;;;;;;;5.33;4.07;;;;;;;2.26;89.43;94653.88;6273151;22;20199;-76
2023/01/26 10:03:13;;;;;;;6.03;4.50;;;;;;;2.35;89.23;94660.56;6270197;22;20175;-76
2023/01/26 10:05:45;;;;;;;7.17;4.70;;;;;;;2.42;89.01;94653.00;6270270;22;20165;-75
2023/01/26 10:08:14;;;;;;;5.47;4.30;;;;;;;2.40;88.76;94652.34;6272937;22;20153;-74
2023/01/26 10:10:46;;;;;;;7.27;4.80;;;;;;;2.36;88.30;94651.09;6270364;22;20179;-75
2023/01/26 10:13:15;;;;;;;8.77;4.60;;;;;;;2.36;89.04;94649.34;6270497;22;20580;-75
2023/01/26 10:15:44;;;;;;;6.83;4.43;;;;;;;2.25;89.14;94639.47;6272382;22;20182;-75
2023/01/26 10:18:17;;;;;;;9.00;5.27;;;;;;;2.18;89.58;94634.22;6271466;22;20733;-73
2023/01/26 10:20:49;;;;;;;4.90;4.20;;;;;;;2.18;89.73;94613.72;6269967;22;20195;-75
2023/01/26 10:23:21;;;;;;;7.40;5.03;;;;;;;2.19;89.18;94601.69;6271775;22;20248;-75
2023/01/26 10:25:50;;;;;;;7.90;4.70;;;;;;;2.07;89.46;94595.34;6273168;22;20289;-75
2023/01/26 10:28:19;;;;;;;11.33;4.93;;;;;;;2.15;89.26;94585.03;6270599;22;20248;-75
2023/01/26 10:30:50;;;;;;;6.63;5.13;;;;;;;2.15;89.51;94585.03;6270865;22;20709;-75
2023/01/26 10:33:20;;;;;;;7.07;4.63;;;;;;;2.03;89.73;94566.69;6272754;22;20218;-75
2023/01/26 10:35:47;;;;;;;6.27;4.23;;;;;;;2.17;89.77;94573.66;6270678;22;20623;-76
2023/01/26 10:38:28;;;;;;;6.40;4.30;;;;;;;2.12;89.39;94573.38;6270042;22;20203;-75
2023/01/26 10:40:58;;;;;;;7.53;4.83;;;;;;;2.10;90.40;94554.81;6272053;22;20217;-79
2023/01/26 10:43:28;;;;;;;5.97;4.20;;;;;;;2.13;89.89;94551.91;6270552;22;20160;-79
2023/01/26 10:45:55;;;;;;;6.10;4.60;;;;;;;2.08;90.06;94541.34;6270911;22;20171;-76
2023/01/26 10:48:25;;;;;;;8.30;4.80;;;;;;;2.16;89.64;94536.19;6271901;22;20726;-76
2023/01/26 10:50:53;;;;;;;7.67;5.00;;;;;;;2.08;90.21;94520.03;6270914;22;20816;-80
2023/01/26 10:53:27;;;;;;;6.50;4.90;;;;;;;2.14;89.71;94530.41;6271415;22;20165;-79
2023/01/26 10:56:04;;;;;;;6.57;4.10;;;;;;;2.22;89.50;94522.66;6272317;22;20157;-79
2023/01/26 10:58:45;;;;;;;11.80;4.77;;;;;;;2.20;89.27;94516.94;6271826;22;20179;-79
2023/01/26 11:01:14;;;;;;;8.77;4.70;;;;;;;2.32;89.34;94519.91;6271813;22;20172;-79
2023/01/26 11:03:42;;;;;;;5.97;4.73;;;;;;;2.31;88.84;94502.91;6270600;22;20181;-79
2023/01/26 11:06:14;;;;;;;7.67;4.80;;;;;;;2.31;88.98;94502.91;6273428;22;20165;-78
2023/01/26 11:08:42;;;;;;;7.43;4.70;;;;;;;2.39;89.21;94495.19;6271135;22;20623;-78
2023/01/26 11:11:25;;;;;;;8.00;4.57;;;;;;;2.45;88.60;94486.81;6244159;22;20197;-77
2023/01/26 11:14:10;;;;;;;6.40;4.27;;;;;;;2.44;88.56;94479.28;6273312;22;20164;-78
2023/01/26 11:16:38;;;;;;;5.73;4.30;;;;;;;2.32;89.58;94478.88;6270078;22;20219;-78
2023/01/26 11:19:12;;;;;;;8.00;5.37;;;;;;;2.42;89.79;94478.66;6271626;22;20160;-78
2023/01/26 11:21:44;;;;;;;5.80;4.40;;;;;;;2.52;89.12;94471.50;6272537;22;20191;-78
2023/01/26 11:24:16;;;;;;;6.73;4.10;;;;;;;2.59;88.21;94464.72;6272098;22;20251;-78
2023/01/26 11:27:13;;;;;;;7.37;4.83;;;;;;;2.61;88.74;94466.13;6271067;22;20212;-75
2023/01/26 11:29:51;;;;;;;7.27;4.37;;;;;;;2.65;88.69;94452.00;6270158;22;20312;-77
2023/01/26 11:32:26;;;;;;;5.30;4.00;;;;;;;2.64;88.70;94447.84;6272494;22;20173;-77
2023/01/26 11:35:04;;;;;;;7.77;5.00;;;;;;;2.74;88.49;94457.84;6270320;22;20497;-77
2023/01/26 11:37:42;;;;;;;10.07;4.60;;;;;;;2.70;88.54;94448.91;6269455;22;20184;-78
2023/01/26 11:40:23;;;;;;;6.93;4.70;;;;;;;2.78;88.43;94444.50;6271774;22;20161;-78
2023/01/26 11:43:12;;;;;;;6.73;4.70;;;;;;;2.88;88.23;94446.81;6272042;22;20184;-78
2023/01/26 11:46:01;;;;;;;7.00;4.03;;;;;;;2.88;88.50;94446.00;6270596;22;20157;-77
2023/01/26 11:48:39;;;;;;;5.03;4.03;;;;;;;2.76;87.60;94420.78;6270589;22;20161;-78
2023/01/26 11:51:12;;;;;;;6.43;3.90;;;;;;;2.80;88.16;94428.91;6270926;22;20495;-79
2023/01/26 11:54:06;;;;;;;6.57;4.40;;;;;;;2.82;88.62;94432.13;6272059;22;20913;-78
2023/01/26 11:56:44;;;;;;;8.07;4.63;;;;;;;2.93;88.32;94436.81;6265527;22;20246;-77
2023/01/26 11:59:17;;;;;;;6.27;4.87;;;;;;;2.97;88.56;94435.50;6270214;22;20191;-77
2023/01/26 12:01:48;;;;;;;5.20;3.83;;;;;;;2.96;88.27;94430.53;6272503;22;20165;-79
2023/01/26 12:04:19;;;;;;;9.00;4.60;;;;;;;2.96;89.00;94415.94;6269617;22;20153;-79
2023/01/26 12:06:54;;;;;;;6.13;4.40;;;;;;;3.00;88.34;94418.94;6269629;22;20650;-79
2023/01/26 12:09:32;;;;;;;8.30;5.00;;;;;;;3.04;87.64;94415.81;6271625;22;20165;-79
2023/01/26 12:12:04;;;;;;;7.03;4.90;;;;;;;2.87;88.72;94404.16;6271546;22;20183;-79
2023/01/26 12:14:38;;;;;;;6.17;4.40;;;;;;;3.01;88.54;94407.69;6270546;22;20161;-77
2023/01/26 12:17:25;;;;;;;7.53;5.30;;;;;;;2.99;88.54;94392.47;6269873;22;20236;-78
2023/01/26 12:20:03;;;;;;;7.60;5.17;;;;;;;3.02;88.15;94389.56;6272131;22;20231;-78
2023/01/26 12:22:32;;;;;;;8.40;5.00;;;;;;;2.85;89.38;94386.38;6270401;22;20167;-78
2023/01/26 12:25:07;;;;;;;6.70;5.07;;;;;;;2.78;89.91;94370.09;6270091;22;20168;-78
2023/01/26 12:27:40;;;;;;;7.23;5.33;;;;;;;2.79;89.99;94374.25;6271489;22;20533;-78
2023/01/26 12:30:25;;;;;;;8.20;5.23;;;;;;;2.70;90.37;94362.50;6270558;22;20165;-79
2023/01/26 12:32:52;;;;;;;8.77;5.40;;;;;;;2.71;90.69;94358.94;6269606;22;20185;-78
2023/01/26 12:35:27;;;;;;;6.77;5.00;;;;;;;2.73;90.32;94363.91;6270167;22;20183;-78
2023/01/26 12:38:01;;;;;;;6.87;5.07;;;;;;;2.62;91.09;94359.22;6271792;22;20152;-80
2023/01/26 12:40:36;;;;;;;8.67;5.30;;;;;;;2.66;91.31;94358.69;6270302;22;20157;-79
2023/01/26 12:43:19;;;;;;;7.03;5.27;;;;;;;2.67;91.09;94347.47;6270403;22;20149;-79